Airport View

Enter AWOS ICAO identifier for current METAR.

ex. KFNL

KMKY 040456Z AUTO 00000KT 10SM CLR 28/26 A2998 RMK AO2 SLP152 T02780261 TSNO $

4 Aug 2020 05:25

Frequency: 120.075

Phone: 239-394-8187

Other Area AWOS: KAPF - KIMM - KRSW - KFMY

TAF AMD KAPF 040241Z 0403/0424 VRB03KT P6SM FEW250 FM041400 09005KT P6SM SCT035 SCT060 FM041800 24010KT P6SM VCTS SCT035CB BKN050